sensor_id;sensor_type;location;lat;lon;timestamp;P1;durP1;ratioP1;P2;durP2;ratioP2
65597;SDS011;52267;51.984;20.956;2022-12-13T00:01:56;12.10;;;8.70;;
65597;SDS011;52267;51.984;20.956;2022-12-13T00:04:24;13.50;;;7.70;;
65597;SDS011;52267;51.984;20.956;2022-12-13T00:06:51;14.70;;;7.90;;
65597;SDS011;52267;51.984;20.956;2022-12-13T00:09:21;15.10;;;8.40;;
65597;SDS011;52267;51.984;20.956;2022-12-13T00:11:49;14.70;;;7.30;;
65597;SDS011;52267;51.984;20.956;2022-12-13T00:14:17;13.30;;;7.30;;
65597;SDS011;52267;51.984;20.956;2022-12-13T00:16:45;13.20;;;8.30;;
65597;SDS011;52267;51.984;20.956;2022-12-13T00:19:14;13.30;;;7.60;;
65597;SDS011;52267;51.984;20.956;2022-12-13T00:21:42;13.20;;;7.40;;
65597;SDS011;52267;51.984;20.956;2022-12-13T00:24:10;12.00;;;6.50;;
65597;SDS011;52267;51.984;20.956;2022-12-13T00:26:37;14.10;;;7.80;;
65597;SDS011;52267;51.984;20.956;2022-12-13T00:29:06;13.20;;;7.30;;
65597;SDS011;52267;51.984;20.956;2022-12-13T00:31:34;12.70;;;6.00;;
65597;SDS011;52267;51.984;20.956;2022-12-13T00:34:02;10.20;;;5.30;;
65597;SDS011;52267;51.984;20.956;2022-12-13T00:36:29;13.50;;;8.10;;
65597;SDS011;52267;51.984;20.956;2022-12-13T00:38:56;11.00;;;6.20;;
65597;SDS011;52267;51.984;20.956;2022-12-13T00:41:29;13.00;;;6.50;;
65597;SDS011;52267;51.984;20.956;2022-12-13T00:43:59;13.00;;;7.80;;
65597;SDS011;52267;51.984;20.956;2022-12-13T00:46:28;10.10;;;6.00;;
65597;SDS011;52267;51.984;20.956;2022-12-13T00:48:57;14.00;;;6.70;;
65597;SDS011;52267;51.984;20.956;2022-12-13T00:51:27;11.00;;;6.00;;
65597;SDS011;52267;51.984;20.956;2022-12-13T00:53:55;14.10;;;7.90;;
65597;SDS011;52267;51.984;20.956;2022-12-13T00:56:27;12.20;;;7.40;;
65597;SDS011;52267;51.984;20.956;2022-12-13T00:58:56;10.30;;;6.10;;
65597;SDS011;52267;51.984;20.956;2022-12-13T01:01:30;10.00;;;4.50;;
65597;SDS011;52267;51.984;20.956;2022-12-13T01:04:00;18.80;;;7.50;;
65597;SDS011;52267;51.984;20.956;2022-12-13T01:06:36;11.30;;;5.60;;
65597;SDS011;52267;51.984;20.956;2022-12-13T01:09:07;13.60;;;6.50;;
65597;SDS011;52267;51.984;20.956;2022-12-13T01:11:38;10.70;;;5.30;;
65597;SDS011;52267;51.984;20.956;2022-12-13T01:14:05;10.90;;;5.80;;
65597;SDS011;52267;51.984;20.956;2022-12-13T01:16:32;15.50;;;7.00;;
65597;SDS011;52267;51.984;20.956;2022-12-13T01:18:59;12.30;;;5.80;;
65597;SDS011;52267;51.984;20.956;2022-12-13T01:21:26;11.20;;;6.40;;
65597;SDS011;52267;51.984;20.956;2022-12-13T01:23:54;9.50;;;5.20;;
65597;SDS011;52267;51.984;20.956;2022-12-13T01:26:27;11.80;;;5.80;;
65597;SDS011;52267;51.984;20.956;2022-12-13T01:28:55;10.10;;;5.80;;
65597;SDS011;52267;51.984;20.956;2022-12-13T01:31:22;12.90;;;6.70;;
65597;SDS011;52267;51.984;20.956;2022-12-13T01:33:49;10.80;;;6.30;;
65597;SDS011;52267;51.984;20.956;2022-12-13T01:36:19;10.10;;;5.10;;
65597;SDS011;52267;51.984;20.956;2022-12-13T01:38:47;12.00;;;5.80;;
65597;SDS011;52267;51.984;20.956;2022-12-13T01:41:17;14.80;;;7.10;;
65597;SDS011;52267;51.984;20.956;2022-12-13T01:46:14;12.10;;;6.10;;
65597;SDS011;52267;51.984;20.956;2022-12-13T01:48:54;13.50;;;6.90;;
65597;SDS011;52267;51.984;20.956;2022-12-13T01:51:52;13.80;;;7.00;;
65597;SDS011;52267;51.984;20.956;2022-12-13T01:54:26;17.30;;;7.10;;
65597;SDS011;52267;51.984;20.956;2022-12-13T01:56:56;13.50;;;7.10;;
65597;SDS011;52267;51.984;20.956;2022-12-13T01:59:25;14.00;;;6.30;;
65597;SDS011;52267;51.984;20.956;2022-12-13T02:01:52;14.10;;;6.20;;
65597;SDS011;52267;51.984;20.956;2022-12-13T02:04:25;10.60;;;5.80;;
65597;SDS011;52267;51.984;20.956;2022-12-13T02:06:56;10.50;;;5.80;;
65597;SDS011;52267;51.984;20.956;2022-12-13T02:09:24;16.50;;;7.40;;
65597;SDS011;52267;51.984;20.956;2022-12-13T02:11:51;15.60;;;6.40;;
65597;SDS011;52267;51.984;20.956;2022-12-13T02:14:19;12.40;;;6.90;;
65597;SDS011;52267;51.984;20.956;2022-12-13T02:17:03;11.00;;;6.20;;
65597;SDS011;52267;51.984;20.956;2022-12-13T02:32:07;11.50;;;5.30;;
65597;SDS011;52267;51.984;20.956;2022-12-13T02:40:26;13.20;;;6.90;;
65597;SDS011;52267;51.984;20.956;2022-12-13T02:43:04;15.30;;;6.80;;
65597;SDS011;52267;51.984;20.956;2022-12-13T02:45:47;14.90;;;6.60;;
65597;SDS011;52267;51.984;20.956;2022-12-13T02:48:27;9.50;;;5.40;;
65597;SDS011;52267;51.984;20.956;2022-12-13T02:51:02;12.30;;;6.20;;
65597;SDS011;52267;51.984;20.956;2022-12-13T02:53:32;12.50;;;6.10;;
65597;SDS011;52267;51.984;20.956;2022-12-13T02:56:00;12.50;;;6.10;;
65597;SDS011;52267;51.984;20.956;2022-12-13T02:58:33;14.50;;;7.40;;
65597;SDS011;52267;51.984;20.956;2022-12-13T03:15:37;11.60;;;6.40;;
65597;SDS011;52267;51.984;20.956;2022-12-13T03:18:13;15.40;;;7.50;;
65597;SDS011;52267;51.984;20.956;2022-12-13T03:20:51;15.20;;;7.40;;
65597;SDS011;52267;51.984;20.956;2022-12-13T03:23:21;17.90;;;8.30;;
65597;SDS011;52267;51.984;20.956;2022-12-13T03:25:52;15.40;;;8.60;;
65597;SDS011;52267;51.984;20.956;2022-12-13T03:28:21;20.20;;;8.80;;
65597;SDS011;52267;51.984;20.956;2022-12-13T03:30:49;20.20;;;8.60;;
65597;SDS011;52267;51.984;20.956;2022-12-13T03:33:16;18.90;;;8.20;;
65597;SDS011;52267;51.984;20.956;2022-12-13T03:35:43;15.50;;;8.80;;
65597;SDS011;52267;51.984;20.956;2022-12-13T03:38:15;20.00;;;10.70;;
65597;SDS011;52267;51.984;20.956;2022-12-13T03:40:43;19.20;;;8.80;;
65597;SDS011;52267;51.984;20.956;2022-12-13T03:43:11;18.00;;;10.20;;
65597;SDS011;52267;51.984;20.956;2022-12-13T03:45:38;16.20;;;9.00;;
65597;SDS011;52267;51.984;20.956;2022-12-13T03:48:05;17.20;;;9.10;;
65597;SDS011;52267;51.984;20.956;2022-12-13T03:50:32;16.20;;;8.80;;
65597;SDS011;52267;51.984;20.956;2022-12-13T03:53:00;16.70;;;9.50;;
65597;SDS011;52267;51.984;20.956;2022-12-13T03:55:29;20.20;;;9.50;;
65597;SDS011;52267;51.984;20.956;2022-12-13T03:57:56;15.30;;;7.70;;
65597;SDS011;52267;51.984;20.956;2022-12-13T04:00:23;16.60;;;8.90;;
65597;SDS011;52267;51.984;20.956;2022-12-13T04:02:50;15.00;;;8.80;;
65597;SDS011;52267;51.984;20.956;2022-12-13T04:05:17;21.70;;;10.70;;
65597;SDS011;52267;51.984;20.956;2022-12-13T04:07:45;17.80;;;8.90;;
65597;SDS011;52267;51.984;20.956;2022-12-13T04:10:12;17.10;;;8.60;;
65597;SDS011;52267;51.984;20.956;2022-12-13T04:12:39;18.80;;;9.40;;
65597;SDS011;52267;51.984;20.956;2022-12-13T04:15:25;14.90;;;7.40;;
65597;SDS011;52267;51.984;20.956;2022-12-13T04:17:52;20.50;;;10.80;;
65597;SDS011;52267;51.984;20.956;2022-12-13T04:20:19;20.20;;;11.00;;
65597;SDS011;52267;51.984;20.956;2022-12-13T04:22:47;16.30;;;8.30;;
65597;SDS011;52267;51.984;20.956;2022-12-13T04:25:14;16.90;;;8.90;;
65597;SDS011;52267;51.984;20.956;2022-12-13T04:27:41;16.40;;;10.90;;
65597;SDS011;52267;51.984;20.956;2022-12-13T04:30:08;22.80;;;9.90;;
65597;SDS011;52267;51.984;20.956;2022-12-13T04:32:36;23.80;;;12.30;;
65597;SDS011;52267;51.984;20.956;2022-12-13T04:35:03;19.90;;;10.40;;
65597;SDS011;52267;51.984;20.956;2022-12-13T04:37:31;21.10;;;10.60;;
65597;SDS011;52267;51.984;20.956;2022-12-13T04:39:58;18.20;;;8.70;;
65597;SDS011;52267;51.984;20.956;2022-12-13T04:42:25;23.60;;;13.30;;
65597;SDS011;52267;51.984;20.956;2022-12-13T04:44:52;22.80;;;11.50;;
65597;SDS011;52267;51.984;20.956;2022-12-13T04:47:20;25.20;;;12.30;;
65597;SDS011;52267;51.984;20.956;2022-12-13T04:49:47;20.60;;;11.40;;
65597;SDS011;52267;51.984;20.956;2022-12-13T04:52:14;18.30;;;9.50;;
65597;SDS011;52267;51.984;20.956;2022-12-13T04:54:41;20.10;;;11.90;;
65597;SDS011;52267;51.984;20.956;2022-12-13T04:57:10;21.90;;;9.30;;
65597;SDS011;52267;51.984;20.956;2022-12-13T04:59:37;21.60;;;11.60;;
65597;SDS011;52267;51.984;20.956;2022-12-13T05:02:06;17.60;;;9.80;;
65597;SDS011;52267;51.984;20.956;2022-12-13T05:04:33;18.10;;;10.40;;
65597;SDS011;52267;51.984;20.956;2022-12-13T05:07:01;16.30;;;9.50;;
65597;SDS011;52267;51.984;20.956;2022-12-13T05:09:28;16.70;;;8.60;;
65597;SDS011;52267;51.984;20.956;2022-12-13T05:11:55;13.70;;;7.10;;
65597;SDS011;52267;51.984;20.956;2022-12-13T05:14:22;17.40;;;8.80;;
65597;SDS011;52267;51.984;20.956;2022-12-13T05:16:50;16.10;;;8.40;;
65597;SDS011;52267;51.984;20.956;2022-12-13T05:19:17;15.40;;;7.60;;
65597;SDS011;52267;51.984;20.956;2022-12-13T05:21:44;15.20;;;7.70;;
65597;SDS011;52267;51.984;20.956;2022-12-13T05:24:11;21.40;;;8.60;;
65597;SDS011;52267;51.984;20.956;2022-12-13T05:26:38;27.70;;;12.00;;
65597;SDS011;52267;51.984;20.956;2022-12-13T05:29:05;27.00;;;11.90;;
65597;SDS011;52267;51.984;20.956;2022-12-13T05:31:32;24.20;;;11.20;;
65597;SDS011;52267;51.984;20.956;2022-12-13T05:34:00;17.80;;;8.50;;
65597;SDS011;52267;51.984;20.956;2022-12-13T05:36:27;20.30;;;9.20;;
65597;SDS011;52267;51.984;20.956;2022-12-13T05:38:54;20.80;;;8.60;;
65597;SDS011;52267;51.984;20.956;2022-12-13T05:41:22;15.40;;;8.00;;
65597;SDS011;52267;51.984;20.956;2022-12-13T05:43:50;20.30;;;8.40;;
65597;SDS011;52267;51.984;20.956;2022-12-13T05:46:18;15.90;;;8.70;;
65597;SDS011;52267;51.984;20.956;2022-12-13T05:48:45;14.80;;;7.30;;
65597;SDS011;52267;51.984;20.956;2022-12-13T05:51:12;17.60;;;8.20;;
65597;SDS011;52267;51.984;20.956;2022-12-13T05:53:40;12.90;;;6.40;;
65597;SDS011;52267;51.984;20.956;2022-12-13T05:56:09;13.90;;;8.50;;
65597;SDS011;52267;51.984;20.956;2022-12-13T05:58:38;18.80;;;9.40;;
65597;SDS011;52267;51.984;20.956;2022-12-13T06:01:12;16.50;;;8.00;;
65597;SDS011;52267;51.984;20.956;2022-12-13T06:03:40;15.60;;;7.90;;
65597;SDS011;52267;51.984;20.956;2022-12-13T06:06:10;15.30;;;7.50;;
65597;SDS011;52267;51.984;20.956;2022-12-13T06:08:38;11.70;;;6.20;;
65597;SDS011;52267;51.984;20.956;2022-12-13T06:11:06;15.00;;;7.00;;
65597;SDS011;52267;51.984;20.956;2022-12-13T06:13:33;17.70;;;8.40;;
65597;SDS011;52267;51.984;20.956;2022-12-13T06:16:02;16.40;;;7.70;;
65597;SDS011;52267;51.984;20.956;2022-12-13T06:18:33;12.90;;;7.00;;
65597;SDS011;52267;51.984;20.956;2022-12-13T06:21:04;15.90;;;8.00;;
65597;SDS011;52267;51.984;20.956;2022-12-13T06:23:33;14.70;;;7.30;;
65597;SDS011;52267;51.984;20.956;2022-12-13T06:26:07;16.20;;;8.10;;
65597;SDS011;52267;51.984;20.956;2022-12-13T06:28:34;15.70;;;7.50;;
65597;SDS011;52267;51.984;20.956;2022-12-13T06:31:02;11.90;;;6.40;;
65597;SDS011;52267;51.984;20.956;2022-12-13T06:33:30;12.00;;;6.20;;
65597;SDS011;52267;51.984;20.956;2022-12-13T06:36:02;14.40;;;8.30;;
65597;SDS011;52267;51.984;20.956;2022-12-13T06:38:31;14.50;;;8.00;;
65597;SDS011;52267;51.984;20.956;2022-12-13T06:41:08;10.60;;;5.80;;
65597;SDS011;52267;51.984;20.956;2022-12-13T06:43:36;10.80;;;5.40;;
65597;SDS011;52267;51.984;20.956;2022-12-13T06:46:04;11.70;;;6.20;;
65597;SDS011;52267;51.984;20.956;2022-12-13T06:48:34;11.50;;;6.00;;
65597;SDS011;52267;51.984;20.956;2022-12-13T06:51:05;13.20;;;7.10;;
65597;SDS011;52267;51.984;20.956;2022-12-13T06:53:34;13.60;;;6.40;;
65597;SDS011;52267;51.984;20.956;2022-12-13T06:56:05;11.90;;;7.20;;
65597;SDS011;52267;51.984;20.956;2022-12-13T06:58:34;12.60;;;6.50;;
65597;SDS011;52267;51.984;20.956;2022-12-13T07:03:37;10.70;;;6.00;;
65597;SDS011;52267;51.984;20.956;2022-12-13T07:06:17;14.00;;;6.50;;
65597;SDS011;52267;51.984;20.956;2022-12-13T07:08:55;12.00;;;6.20;;
65597;SDS011;52267;51.984;20.956;2022-12-13T07:11:25;11.60;;;5.90;;
65597;SDS011;52267;51.984;20.956;2022-12-13T07:13:54;9.60;;;5.50;;
65597;SDS011;52267;51.984;20.956;2022-12-13T07:16:23;9.50;;;5.60;;
65597;SDS011;52267;51.984;20.956;2022-12-13T07:18:54;13.60;;;6.50;;
65597;SDS011;52267;51.984;20.956;2022-12-13T07:21:23;10.80;;;5.10;;
65597;SDS011;52267;51.984;20.956;2022-12-13T07:23:51;13.30;;;6.60;;
65597;SDS011;52267;51.984;20.956;2022-12-13T07:26:20;13.60;;;8.10;;
65597;SDS011;52267;51.984;20.956;2022-12-13T07:28:48;13.00;;;6.20;;
65597;SDS011;52267;51.984;20.956;2022-12-13T07:31:15;18.20;;;8.40;;
65597;SDS011;52267;51.984;20.956;2022-12-13T07:33:44;14.40;;;7.40;;
65597;SDS011;52267;51.984;20.956;2022-12-13T07:36:17;16.40;;;8.20;;
65597;SDS011;52267;51.984;20.956;2022-12-13T07:38:53;11.20;;;5.50;;
65597;SDS011;52267;51.984;20.956;2022-12-13T07:41:22;17.20;;;8.30;;
65597;SDS011;52267;51.984;20.956;2022-12-13T07:43:51;9.50;;;4.70;;
65597;SDS011;52267;51.984;20.956;2022-12-13T07:46:19;15.10;;;7.00;;
65597;SDS011;52267;51.984;20.956;2022-12-13T07:48:46;13.70;;;7.30;;
65597;SDS011;52267;51.984;20.956;2022-12-13T07:51:13;15.30;;;7.20;;
65597;SDS011;52267;51.984;20.956;2022-12-13T07:53:40;14.30;;;8.20;;
65597;SDS011;52267;51.984;20.956;2022-12-13T07:56:09;13.10;;;7.80;;
65597;SDS011;52267;51.984;20.956;2022-12-13T07:58:37;12.20;;;6.40;;
65597;SDS011;52267;51.984;20.956;2022-12-13T08:01:08;11.50;;;6.20;;
65597;SDS011;52267;51.984;20.956;2022-12-13T08:03:35;22.20;;;10.40;;
65597;SDS011;52267;51.984;20.956;2022-12-13T08:06:09;19.40;;;9.50;;
65597;SDS011;52267;51.984;20.956;2022-12-13T08:08:37;18.00;;;9.40;;
65597;SDS011;52267;51.984;20.956;2022-12-13T08:11:09;18.30;;;8.40;;
65597;SDS011;52267;51.984;20.956;2022-12-13T08:13:38;14.10;;;7.00;;
65597;SDS011;52267;51.984;20.956;2022-12-13T08:16:08;15.70;;;9.90;;
65597;SDS011;52267;51.984;20.956;2022-12-13T08:18:36;18.20;;;9.10;;
65597;SDS011;52267;51.984;20.956;2022-12-13T08:21:06;16.90;;;9.10;;
65597;SDS011;52267;51.984;20.956;2022-12-13T08:23:35;15.00;;;7.20;;
65597;SDS011;52267;51.984;20.956;2022-12-13T08:26:04;11.40;;;6.60;;
65597;SDS011;52267;51.984;20.956;2022-12-13T08:28:32;13.10;;;7.90;;
65597;SDS011;52267;51.984;20.956;2022-12-13T08:31:06;15.40;;;8.00;;
65597;SDS011;52267;51.984;20.956;2022-12-13T08:33:37;9.10;;;5.90;;
65597;SDS011;52267;51.984;20.956;2022-12-13T08:36:07;10.20;;;6.60;;
65597;SDS011;52267;51.984;20.956;2022-12-13T08:38:36;10.90;;;6.30;;
65597;SDS011;52267;51.984;20.956;2022-12-13T08:41:04;14.60;;;6.90;;
65597;SDS011;52267;51.984;20.956;2022-12-13T08:43:32;12.90;;;7.50;;
65597;SDS011;52267;51.984;20.956;2022-12-13T08:45:59;11.80;;;6.00;;
65597;SDS011;52267;51.984;20.956;2022-12-13T08:48:27;8.40;;;5.90;;
65597;SDS011;52267;51.984;20.956;2022-12-13T08:51:01;11.00;;;5.30;;
65597;SDS011;52267;51.984;20.956;2022-12-13T08:53:29;10.20;;;6.00;;
65597;SDS011;52267;51.984;20.956;2022-12-13T08:56:06;11.90;;;7.00;;
65597;SDS011;52267;51.984;20.956;2022-12-13T08:58:37;11.40;;;5.70;;
65597;SDS011;52267;51.984;20.956;2022-12-13T09:01:08;13.50;;;6.40;;
65597;SDS011;52267;51.984;20.956;2022-12-13T09:03:37;11.30;;;6.80;;
65597;SDS011;52267;51.984;20.956;2022-12-13T09:06:12;11.30;;;6.20;;
65597;SDS011;52267;51.984;20.956;2022-12-13T09:08:42;11.20;;;6.30;;
65597;SDS011;52267;51.984;20.956;2022-12-13T09:11:10;10.40;;;6.40;;
65597;SDS011;52267;51.984;20.956;2022-12-13T09:13:39;14.90;;;8.20;;
65597;SDS011;52267;51.984;20.956;2022-12-13T09:16:09;13.90;;;6.80;;
65597;SDS011;52267;51.984;20.956;2022-12-13T09:18:39;12.80;;;7.20;;
65597;SDS011;52267;51.984;20.956;2022-12-13T09:21:09;8.80;;;5.20;;
65597;SDS011;52267;51.984;20.956;2022-12-13T09:23:37;13.80;;;6.60;;
65597;SDS011;52267;51.984;20.956;2022-12-13T09:26:08;15.90;;;8.80;;
65597;SDS011;52267;51.984;20.956;2022-12-13T09:28:37;12.00;;;7.50;;
65597;SDS011;52267;51.984;20.956;2022-12-13T09:31:13;10.50;;;6.30;;
65597;SDS011;52267;51.984;20.956;2022-12-13T09:33:45;12.70;;;6.80;;
65597;SDS011;52267;51.984;20.956;2022-12-13T09:36:17;13.30;;;8.00;;
65597;SDS011;52267;51.984;20.956;2022-12-13T09:38:46;13.50;;;7.20;;
65597;SDS011;52267;51.984;20.956;2022-12-13T09:44:47;14.60;;;7.60;;
65597;SDS011;52267;51.984;20.956;2022-12-13T09:46:55;14.50;;;8.00;;
65597;SDS011;52267;51.984;20.956;2022-12-13T09:49:50;13.00;;;7.10;;
65597;SDS011;52267;51.984;20.956;2022-12-13T09:52:18;11.80;;;6.50;;
65597;SDS011;52267;51.984;20.956;2022-12-13T09:54:49;13.40;;;7.60;;
65597;SDS011;52267;51.984;20.956;2022-12-13T09:57:30;12.70;;;7.30;;
65597;SDS011;52267;51.984;20.956;2022-12-13T09:59:57;13.10;;;6.80;;
65597;SDS011;52267;51.984;20.956;2022-12-13T10:02:29;14.10;;;7.80;;
65597;SDS011;52267;51.984;20.956;2022-12-13T10:05:28;15.60;;;6.90;;
65597;SDS011;52267;51.984;20.956;2022-12-13T10:07:59;12.40;;;5.60;;
65597;SDS011;52267;51.984;20.956;2022-12-13T10:10:41;11.80;;;5.70;;
65597;SDS011;52267;51.984;20.956;2022-12-13T10:13:14;10.00;;;5.60;;
65597;SDS011;52267;51.984;20.956;2022-12-13T10:18:44;13.30;;;7.70;;
65597;SDS011;52267;51.984;20.956;2022-12-13T10:21:21;11.70;;;6.20;;
65597;SDS011;52267;51.984;20.956;2022-12-13T10:26:45;12.60;;;6.90;;
65597;SDS011;52267;51.984;20.956;2022-12-13T10:29:13;15.00;;;7.10;;
65597;SDS011;52267;51.984;20.956;2022-12-13T10:31:43;12.90;;;7.10;;
65597;SDS011;52267;51.984;20.956;2022-12-13T10:34:27;15.50;;;7.40;;
65597;SDS011;52267;51.984;20.956;2022-12-13T10:36:56;14.60;;;7.10;;
65597;SDS011;52267;51.984;20.956;2022-12-13T10:39:41;8.60;;;4.10;;
65597;SDS011;52267;51.984;20.956;2022-12-13T10:42:14;14.40;;;7.50;;
65597;SDS011;52267;51.984;20.956;2022-12-13T10:44:43;12.90;;;6.70;;
65597;SDS011;52267;51.984;20.956;2022-12-13T10:47:23;11.50;;;7.40;;
65597;SDS011;52267;51.984;20.956;2022-12-13T10:52:33;13.00;;;6.30;;
65597;SDS011;52267;51.984;20.956;2022-12-13T10:55:10;11.80;;;6.30;;
65597;SDS011;52267;51.984;20.956;2022-12-13T10:58:17;9.80;;;5.50;;
65597;SDS011;52267;51.984;20.956;2022-12-13T11:00:46;11.80;;;6.70;;
65597;SDS011;52267;51.984;20.956;2022-12-13T11:03:32;14.50;;;7.60;;
65597;SDS011;52267;51.984;20.956;2022-12-13T11:06:13;12.90;;;6.70;;
65597;SDS011;52267;51.984;20.956;2022-12-13T11:08:41;12.30;;;6.50;;
65597;SDS011;52267;51.984;20.956;2022-12-13T11:11:09;12.40;;;6.80;;
65597;SDS011;52267;51.984;20.956;2022-12-13T11:13:43;13.60;;;7.40;;
65597;SDS011;52267;51.984;20.956;2022-12-13T11:16:31;14.30;;;7.30;;
65597;SDS011;52267;51.984;20.956;2022-12-13T11:19:06;14.00;;;5.40;;
65597;SDS011;52267;51.984;20.956;2022-12-13T11:21:47;9.70;;;5.80;;
65597;SDS011;52267;51.984;20.956;2022-12-13T11:24:23;14.40;;;7.60;;
65597;SDS011;52267;51.984;20.956;2022-12-13T11:26:56;11.40;;;6.60;;
65597;SDS011;52267;51.984;20.956;2022-12-13T11:29:56;15.60;;;8.20;;
65597;SDS011;52267;51.984;20.956;2022-12-13T11:35:34;10.80;;;5.90;;
65597;SDS011;52267;51.984;20.956;2022-12-13T11:38:24;13.30;;;8.10;;
65597;SDS011;52267;51.984;20.956;2022-12-13T11:41:20;13.20;;;6.40;;
65597;SDS011;52267;51.984;20.956;2022-12-13T11:43:59;17.60;;;9.40;;
65597;SDS011;52267;51.984;20.956;2022-12-13T11:46:36;12.10;;;7.10;;
65597;SDS011;52267;51.984;20.956;2022-12-13T11:49:18;18.60;;;9.70;;
65597;SDS011;52267;51.984;20.956;2022-12-13T11:55:14;14.80;;;7.40;;
65597;SDS011;52267;51.984;20.956;2022-12-13T11:57:55;13.30;;;6.20;;
65597;SDS011;52267;51.984;20.956;2022-12-13T12:00:33;16.50;;;7.80;;
65597;SDS011;52267;51.984;20.956;2022-12-13T12:05:45;10.40;;;6.00;;
65597;SDS011;52267;51.984;20.956;2022-12-13T12:08:37;17.30;;;8.80;;
65597;SDS011;52267;51.984;20.956;2022-12-13T12:14:13;18.80;;;9.70;;
65597;SDS011;52267;51.984;20.956;2022-12-13T12:16:51;15.90;;;8.80;;
65597;SDS011;52267;51.984;20.956;2022-12-13T12:19:34;22.40;;;11.30;;
65597;SDS011;52267;51.984;20.956;2022-12-13T12:25:52;14.00;;;8.10;;
65597;SDS011;52267;51.984;20.956;2022-12-13T12:34:36;15.70;;;9.00;;
65597;SDS011;52267;51.984;20.956;2022-12-13T12:40:28;10.90;;;6.50;;
65597;SDS011;52267;51.984;20.956;2022-12-13T12:43:25;14.70;;;8.60;;
65597;SDS011;52267;51.984;20.956;2022-12-13T12:52:01;18.50;;;9.90;;
65597;SDS011;52267;51.984;20.956;2022-12-13T13:01:01;20.80;;;11.30;;
65597;SDS011;52267;51.984;20.956;2022-12-13T13:03:39;14.30;;;9.40;;
65597;SDS011;52267;51.984;20.956;2022-12-13T13:09:16;17.80;;;10.00;;
65597;SDS011;52267;51.984;20.956;2022-12-13T13:11:45;17.80;;;9.90;;
65597;SDS011;52267;51.984;20.956;2022-12-13T13:14:29;13.70;;;8.40;;
65597;SDS011;52267;51.984;20.956;2022-12-13T13:20:22;16.20;;;8.10;;
65597;SDS011;52267;51.984;20.956;2022-12-13T13:22:57;17.80;;;9.30;;
65597;SDS011;52267;51.984;20.956;2022-12-13T13:25:29;18.50;;;9.40;;
65597;SDS011;52267;51.984;20.956;2022-12-13T13:31:05;16.60;;;9.40;;
65597;SDS011;52267;51.984;20.956;2022-12-13T13:39:36;20.70;;;10.00;;
65597;SDS011;52267;51.984;20.956;2022-12-13T14:02:03;19.40;;;10.40;;
65597;SDS011;52267;51.984;20.956;2022-12-13T14:05:18;16.00;;;6.70;;
65597;SDS011;52267;51.984;20.956;2022-12-13T14:08:03;21.00;;;9.20;;
65597;SDS011;52267;51.984;20.956;2022-12-13T14:22:23;24.70;;;11.50;;
65597;SDS011;52267;51.984;20.956;2022-12-13T14:31:23;35.70;;;16.80;;
65597;SDS011;52267;51.984;20.956;2022-12-13T14:34:03;21.10;;;10.60;;
65597;SDS011;52267;51.984;20.956;2022-12-13T14:36:34;19.00;;;10.20;;
65597;SDS011;52267;51.984;20.956;2022-12-13T14:39:11;27.60;;;12.50;;
65597;SDS011;52267;51.984;20.956;2022-12-13T14:41:47;21.20;;;11.20;;
65597;SDS011;52267;51.984;20.956;2022-12-13T14:44:22;22.50;;;11.90;;
65597;SDS011;52267;51.984;20.956;2022-12-13T14:46:58;27.00;;;12.90;;
65597;SDS011;52267;51.984;20.956;2022-12-13T14:49:28;28.50;;;14.10;;
65597;SDS011;52267;51.984;20.956;2022-12-13T14:52:06;22.90;;;11.00;;
65597;SDS011;52267;51.984;20.956;2022-12-13T14:55:00;26.50;;;11.20;;
65597;SDS011;52267;51.984;20.956;2022-12-13T14:57:33;20.00;;;11.10;;
65597;SDS011;52267;51.984;20.956;2022-12-13T15:00:22;22.50;;;11.10;;
65597;SDS011;52267;51.984;20.956;2022-12-13T15:02:54;21.10;;;11.20;;
65597;SDS011;52267;51.984;20.956;2022-12-13T15:05:31;22.10;;;10.90;;
65597;SDS011;52267;51.984;20.956;2022-12-13T15:08:07;24.90;;;13.00;;
65597;SDS011;52267;51.984;20.956;2022-12-13T15:10:39;20.60;;;11.30;;
65597;SDS011;52267;51.984;20.956;2022-12-13T15:13:42;23.20;;;11.60;;
65597;SDS011;52267;51.984;20.956;2022-12-13T15:16:24;23.00;;;11.70;;
65597;SDS011;52267;51.984;20.956;2022-12-13T15:19:15;19.30;;;9.90;;
65597;SDS011;52267;51.984;20.956;2022-12-13T15:21:59;21.90;;;11.90;;
65597;SDS011;52267;51.984;20.956;2022-12-13T15:24:29;23.30;;;10.90;;
65597;SDS011;52267;51.984;20.956;2022-12-13T15:26:59;25.20;;;11.80;;
65597;SDS011;52267;51.984;20.956;2022-12-13T15:29:29;31.30;;;14.50;;
65597;SDS011;52267;51.984;20.956;2022-12-13T15:31:57;28.40;;;13.30;;
65597;SDS011;52267;51.984;20.956;2022-12-13T15:37:05;37.70;;;16.40;;
65597;SDS011;52267;51.984;20.956;2022-12-13T15:39:45;38.20;;;16.90;;
65597;SDS011;52267;51.984;20.956;2022-12-13T15:42:37;22.00;;;11.10;;
65597;SDS011;52267;51.984;20.956;2022-12-13T15:45:33;24.50;;;12.50;;
65597;SDS011;52267;51.984;20.956;2022-12-13T15:48:02;29.70;;;12.30;;
65597;SDS011;52267;51.984;20.956;2022-12-13T15:50:33;23.40;;;12.30;;
65597;SDS011;52267;51.984;20.956;2022-12-13T15:53:05;19.60;;;10.50;;
65597;SDS011;52267;51.984;20.956;2022-12-13T15:58:30;20.50;;;11.10;;
65597;SDS011;52267;51.984;20.956;2022-12-13T16:01:00;23.60;;;12.10;;
65597;SDS011;52267;51.984;20.956;2022-12-13T16:03:42;24.20;;;12.90;;
65597;SDS011;52267;51.984;20.956;2022-12-13T16:06:16;23.30;;;10.60;;
65597;SDS011;52267;51.984;20.956;2022-12-13T16:08:49;24.70;;;12.00;;
65597;SDS011;52267;51.984;20.956;2022-12-13T16:11:34;24.70;;;13.40;;
65597;SDS011;52267;51.984;20.956;2022-12-13T16:14:31;29.00;;;13.10;;
65597;SDS011;52267;51.984;20.956;2022-12-13T16:17:25;29.40;;;13.80;;
65597;SDS011;52267;51.984;20.956;2022-12-13T16:19:57;36.40;;;16.20;;
65597;SDS011;52267;51.984;20.956;2022-12-13T16:22:25;38.50;;;18.10;;
65597;SDS011;52267;51.984;20.956;2022-12-13T16:24:52;50.20;;;20.50;;
65597;SDS011;52267;51.984;20.956;2022-12-13T16:27:21;49.80;;;19.20;;
65597;SDS011;52267;51.984;20.956;2022-12-13T16:29:50;37.20;;;17.70;;
65597;SDS011;52267;51.984;20.956;2022-12-13T16:32:18;41.40;;;17.60;;
65597;SDS011;52267;51.984;20.956;2022-12-13T16:34:45;28.90;;;14.60;;
65597;SDS011;52267;51.984;20.956;2022-12-13T16:37:12;25.70;;;13.80;;
65597;SDS011;52267;51.984;20.956;2022-12-13T16:39:40;35.40;;;17.50;;
65597;SDS011;52267;51.984;20.956;2022-12-13T16:42:07;29.00;;;16.00;;
65597;SDS011;52267;51.984;20.956;2022-12-13T16:44:36;26.20;;;12.90;;
65597;SDS011;52267;51.984;20.956;2022-12-13T16:47:08;29.60;;;14.10;;
65597;SDS011;52267;51.984;20.956;2022-12-13T16:49:38;24.10;;;13.60;;
65597;SDS011;52267;51.984;20.956;2022-12-13T16:52:06;32.70;;;16.10;;
65597;SDS011;52267;51.984;20.956;2022-12-13T16:54:33;31.70;;;16.40;;
65597;SDS011;52267;51.984;20.956;2022-12-13T16:57:01;33.70;;;16.40;;
65597;SDS011;52267;51.984;20.956;2022-12-13T16:59:30;38.10;;;16.40;;
65597;SDS011;52267;51.984;20.956;2022-12-13T17:01:57;37.70;;;17.80;;
65597;SDS011;52267;51.984;20.956;2022-12-13T17:04:26;46.60;;;19.50;;
65597;SDS011;52267;51.984;20.956;2022-12-13T17:06:54;34.90;;;17.80;;
65597;SDS011;52267;51.984;20.956;2022-12-13T17:09:23;33.40;;;16.40;;
65597;SDS011;52267;51.984;20.956;2022-12-13T17:11:52;29.50;;;15.00;;
65597;SDS011;52267;51.984;20.956;2022-12-13T17:14:22;34.80;;;15.30;;